Disclaimer

Please do not use the information listed here in-flight or in-navigation, as they are not provided to us by the airports but are provided by volunteers, so they might be outdated.

Search


Regions


Airport information page

Radio informations:
Tower (TWR) - 118.075 MHz
Approach (APP) - 132.7 MHz

Airport informations:
Latitude: 51° 30' 19.00" N
Longitude: 000° 03' 19.00" E
Elevation: 19 feet - 6 meters
Operating hours: Remarks
Operating agency: Civil government, landing fees and diplomatic clearance may be required
Timezone: UTC 0(+1DT) - Last Sunday in March to last Sunday in October
Fuel: N/A

Runway information:
10/28 - 4948 x 98 feet< - >1508 x 30 meters

Recent METARs:
EGLC 160550Z AUTO 10006KT 1600 BR BKN002 OVC005 11/10 Q1024
EGLC 160620Z 11007KT 1800 BR OVC003 10/10 Q1024
EGLC 160650Z AUTO 10006KT 2000 BR OVC002 10/10 Q1025

Airport on the map: